Time;durP1;ratioP1;P1;durP2;ratioP2;P2;SDS_P1;SDS_P2;PMS_P1;PMS_P2;Temp;Humidity;BMP_temperature;BMP_pressure;BME280_temperature;BME280_humidity;BME280_pressure;Samples;Min_cycle;Max_cycle;Signal;HPM_P1;HPM_P2
2023/06/10 00:01:09;;;;;;;9.20;8.30;;;;;;;14.01;100.00;102077.81;5002568;28;20471;-42
2023/06/10 00:03:37;;;;;;;9.80;8.90;;;;;;;14.01;100.00;102074.31;5001444;28;20474;-42
2023/06/10 00:06:05;;;;;;;10.93;9.53;;;;;;;14.00;100.00;102081.53;5002001;28;20855;-44
2023/06/10 00:08:33;;;;;;;10.60;9.57;;;;;;;14.02;100.00;102076.81;5002136;28;20489;-42
2023/06/10 00:11:01;;;;;;;11.17;9.93;;;;;;;13.99;100.00;102085.22;5001075;28;20585;-43
2023/06/10 00:13:30;;;;;;;11.13;10.07;;;;;;;13.93;100.00;102099.38;5000943;28;20496;-45
2023/06/10 00:15:58;;;;;;;11.90;9.67;;;;;;;13.95;100.00;102078.56;5001781;28;20426;-44
2023/06/10 00:18:26;;;;;;;10.77;9.70;;;;;;;13.92;100.00;102081.59;5001683;28;21014;-43
2023/06/10 00:20:54;;;;;;;18.00;10.33;;;;;;;13.93;100.00;102082.44;5001366;28;20430;-42
2023/06/10 00:23:24;;;;;;;10.77;9.63;;;;;;;13.92;100.00;102084.28;5000378;28;20508;-48
2023/06/10 00:25:52;;;;;;;10.27;9.50;;;;;;;13.86;100.00;102080.50;4999551;28;20844;-44
2023/06/10 00:28:20;;;;;;;12.50;9.40;;;;;;;13.81;100.00;102077.56;5001780;28;20457;-46
2023/06/10 00:30:49;;;;;;;11.00;10.10;;;;;;;13.82;100.00;102081.91;5001819;28;20525;-42
2023/06/10 00:33:17;;;;;;;10.40;9.50;;;;;;;13.84;100.00;102079.03;4999582;28;20497;-44
2023/06/10 00:35:44;;;;;;;10.70;9.73;;;;;;;13.83;100.00;102072.00;5001111;28;20444;-42
2023/06/10 00:38:14;;;;;;;9.90;9.27;;;;;;;13.81;100.00;102082.09;5000539;28;20968;-43
2023/06/10 00:40:42;;;;;;;10.67;9.87;;;;;;;13.78;100.00;102082.44;5001322;28;20454;-42
2023/06/10 00:43:10;;;;;;;11.80;10.93;;;;;;;13.79;100.00;102073.41;5000748;28;20540;-45
2023/06/10 00:45:38;;;;;;;10.80;9.90;;;;;;;13.78;100.00;102072.56;5001358;28;20492;-42
2023/06/10 00:48:07;;;;;;;11.30;10.47;;;;;;;13.78;100.00;102069.03;5000427;28;20454;-42
2023/06/10 00:50:39;;;;;;;10.60;9.60;;;;;;;13.78;100.00;102072.56;5001454;28;20434;-42
2023/06/10 00:53:07;;;;;;;10.23;9.53;;;;;;;13.78;100.00;102075.25;5000716;28;20466;-44
2023/06/10 00:55:36;;;;;;;11.40;10.40;;;;;;;13.76;100.00;102071.94;5000756;28;20469;-46
2023/06/10 00:58:04;;;;;;;12.33;10.80;;;;;;;13.76;100.00;102066.56;5000435;28;20517;-41
2023/06/10 01:00:32;;;;;;;10.87;10.07;;;;;;;13.78;100.00;102080.59;5000803;28;20438;-45
2023/06/10 01:03:00;;;;;;;10.67;9.63;;;;;;;13.75;100.00;102067.56;5000119;28;20490;-43
2023/06/10 01:05:30;;;;;;;10.93;9.93;;;;;;;13.75;100.00;102080.13;5000392;28;20479;-44
2023/06/10 01:08:06;;;;;;;11.63;10.67;;;;;;;13.76;100.00;102068.41;5000824;28;20537;-45
2023/06/10 01:10:38;;;;;;;11.70;9.63;;;;;;;13.74;100.00;102073.09;5001142;28;20595;-42
2023/06/10 01:13:11;;;;;;;18.40;10.80;;;;;;;13.71;100.00;102074.31;5000546;28;20470;-44
2023/06/10 01:15:39;;;;;;;10.13;9.43;;;;;;;13.70;100.00;102072.66;5001854;28;20414;-42
2023/06/10 01:18:09;;;;;;;10.03;9.33;;;;;;;13.67;100.00;102065.00;4999833;28;20465;-45
2023/06/10 01:20:40;;;;;;;10.70;9.80;;;;;;;13.70;100.00;102077.19;4999354;28;20445;-43
2023/06/10 01:23:10;;;;;;;9.60;9.00;;;;;;;13.68;100.00;102079.19;4998648;28;20489;-49
2023/06/10 01:25:40;;;;;;;15.50;10.67;;;;;;;13.65;100.00;102076.91;4999232;28;20423;-45
2023/06/10 01:28:13;;;;;;;12.33;10.10;;;;;;;13.60;100.00;102066.72;5001031;28;20466;-45
2023/06/10 01:30:48;;;;;;;18.30;10.13;;;;;;;13.61;100.00;102075.63;5039112;28;20778;-47
2023/06/10 01:33:19;;;;;;;10.30;9.50;;;;;;;13.64;100.00;102065.34;5038110;28;20518;-44
2023/06/10 01:35:49;;;;;;;10.33;9.47;;;;;;;13.61;100.00;102067.56;5039304;28;20491;-43
2023/06/10 01:38:21;;;;;;;10.10;9.30;;;;;;;13.61;100.00;102063.06;5038391;28;20452;-43
2023/06/10 01:40:50;;;;;;;10.43;9.63;;;;;;;13.61;100.00;102064.88;5038658;28;20471;-44
2023/06/10 01:43:18;;;;;;;11.43;9.47;;;;;;;13.62;100.00;102064.69;5037823;28;20464;-46
2023/06/10 01:45:45;;;;;;;10.13;9.43;;;;;;;13.58;100.00;102059.91;5038806;28;20432;-45
2023/06/10 01:48:13;;;;;;;10.20;9.50;;;;;;;13.58;100.00;102062.56;5038817;28;20484;-42
2023/06/10 01:50:41;;;;;;;11.07;9.23;;;;;;;13.56;100.00;102060.06;5039368;28;20987;-44
2023/06/10 01:53:09;;;;;;;10.30;9.37;;;;;;;13.59;100.00;102061.56;5037834;28;20468;-42
2023/06/10 01:55:38;;;;;;;10.00;9.30;;;;;;;13.57;100.00;102061.75;5038936;28;20458;-42
2023/06/10 01:58:06;;;;;;;9.83;9.20;;;;;;;13.57;100.00;102059.06;5038994;28;20850;-45
2023/06/10 02:00:33;;;;;;;10.50;9.50;;;;;;;13.56;100.00;102072.66;5038788;28;20440;-45
2023/06/10 02:03:01;;;;;;;11.00;10.30;;;;;;;13.55;100.00;102058.41;5037863;28;20472;-44
2023/06/10 02:05:29;;;;;;;9.77;9.13;;;;;;;13.54;100.00;102063.94;5039435;28;20494;-42
2023/06/10 02:07:57;;;;;;;9.63;8.80;;;;;;;13.55;100.00;102055.75;5039878;28;20460;-43
2023/06/10 02:10:25;;;;;;;9.50;8.90;;;;;;;13.53;100.00;102065.00;5039580;28;20436;-44
2023/06/10 02:12:54;;;;;;;9.03;8.47;;;;;;;13.51;100.00;102061.63;5038533;28;20472;-44
2023/06/10 02:15:21;;;;;;;8.43;8.13;;;;;;;13.49;100.00;102069.88;5039697;28;20464;-41
2023/06/10 02:17:50;;;;;;;11.00;9.50;;;;;;;13.52;100.00;102068.66;5039185;28;20485;-43
2023/06/10 02:20:18;;;;;;;9.80;9.13;;;;;;;13.53;100.00;102054.28;5038993;28;20424;-44
2023/06/10 02:22:46;;;;;;;10.20;9.50;;;;;;;13.57;100.00;102063.59;5038972;28;20838;-44
2023/06/10 02:25:14;;;;;;;9.80;9.00;;;;;;;13.54;100.00;102072.81;5039349;28;20428;-44
2023/06/10 02:27:42;;;;;;;8.70;8.30;;;;;;;13.54;100.00;102070.16;5038860;28;20448;-45
2023/06/10 02:30:13;;;;;;;10.03;9.20;;;;;;;13.52;100.00;102074.88;5038650;28;20444;-42
2023/06/10 02:32:41;;;;;;;9.37;8.63;;;;;;;13.53;100.00;102076.50;5038396;28;20487;-42
2023/06/10 02:35:12;;;;;;;8.70;8.20;;;;;;;13.53;100.00;102049.72;5039427;28;20432;-44
2023/06/10 02:37:40;;;;;;;10.03;7.87;;;;;;;13.54;100.00;102056.75;5039586;28;20472;-46
2023/06/10 02:40:10;;;;;;;9.40;8.57;;;;;;;13.55;100.00;102071.81;5039700;28;20458;-42
2023/06/10 02:42:37;;;;;;;9.73;8.80;;;;;;;13.53;100.00;102067.66;5038430;28;20893;-45
2023/06/10 02:45:06;;;;;;;9.20;8.53;;;;;;;13.54;100.00;102055.91;5039049;28;20432;-48
2023/06/10 02:47:38;;;;;;;9.30;8.50;;;;;;;13.54;100.00;102072.81;5038882;28;20452;-44
2023/06/10 02:50:06;;;;;;;10.27;8.13;;;;;;;13.57;100.00;102061.75;5039285;28;20984;-42
2023/06/10 02:52:34;;;;;;;9.33;8.53;;;;;;;13.58;100.00;102058.06;5038315;28;20468;-42
2023/06/10 02:55:02;;;;;;;9.10;8.43;;;;;;;13.56;100.00;102052.03;5039038;28;20428;-43
2023/06/10 02:57:29;;;;;;;9.90;9.10;;;;;;;13.62;100.00;102055.84;5038635;28;20502;-42
2023/06/10 02:59:58;;;;;;;8.33;7.83;;;;;;;13.64;100.00;102064.53;5039376;28;20437;-44
2023/06/10 03:02:28;;;;;;;9.23;8.50;;;;;;;13.63;100.00;102057.47;5041652;22;20456;-42
2023/06/10 03:04:57;;;;;;;10.10;9.10;;;;;;;13.64;100.00;102062.69;5003312;28;20532;-43
2023/06/10 03:07:26;;;;;;;8.00;7.70;;;;;;;13.69;100.00;102057.59;5011703;28;20511;-45
2023/06/10 03:09:53;;;;;;;8.93;8.43;;;;;;;13.71;100.00;102068.09;5011635;28;20436;-43
2023/06/10 03:12:21;;;;;;;8.57;8.10;;;;;;;13.74;100.00;102068.56;5013417;28;20468;-43
2023/06/10 03:14:49;;;;;;;9.07;8.23;;;;;;;13.76;100.00;102071.09;5015448;28;20436;-43
2023/06/10 03:17:17;;;;;;;8.77;8.30;;;;;;;13.75;100.00;102062.22;5015220;28;20870;-44
2023/06/10 03:19:44;;;;;;;8.60;7.80;;;;;;;13.80;100.00;102065.16;5015210;28;20933;-45
2023/06/10 03:22:15;;;;;;;8.17;7.50;;;;;;;13.81;100.00;102064.16;5014288;28;20468;-45
2023/06/10 03:24:43;;;;;;;9.43;8.13;;;;;;;14.00;100.00;102057.38;5014934;28;20425;-43
2023/06/10 03:27:11;;;;;;;8.37;7.33;;;;;;;14.65;100.00;102059.19;5011221;28;21034;-43
2023/06/10 03:29:39;;;;;;;7.43;7.03;;;;;;;15.09;100.00;102046.38;5014795;28;20484;-43
2023/06/10 03:32:08;;;;;;;9.07;8.17;;;;;;;15.10;100.00;102047.19;5014203;28;20456;-43
2023/06/10 03:34:35;;;;;;;8.70;8.10;;;;;;;15.04;100.00;102047.97;5014884;28;21136;-43
2023/06/10 03:37:03;;;;;;;7.60;7.20;;;;;;;14.90;100.00;102055.09;5014900;28;20802;-45
2023/06/10 03:39:33;;;;;;;8.20;7.63;;;;;;;14.80;100.00;102046.53;5009867;28;20519;-43
2023/06/10 03:42:01;;;;;;;7.63;7.27;;;;;;;14.76;100.00;102043.38;5011994;28;20457;-43
2023/06/10 03:44:29;;;;;;;7.70;7.13;;;;;;;14.75;100.00;102060.53;5009297;28;20429;-46
2023/06/10 03:46:57;;;;;;;7.43;7.13;;;;;;;14.65;100.00;102051.97;5009877;28;20436;-44
2023/06/10 03:49:26;;;;;;;7.43;6.93;;;;;;;14.72;100.00;102055.56;4996343;28;20457;-44
2023/06/10 03:51:54;;;;;;;7.23;6.67;;;;;;;14.73;100.00;102061.72;5007515;28;20457;-43
2023/06/10 03:54:22;;;;;;;8.83;6.80;;;;;;;14.75;100.00;102067.75;5005495;28;20620;-44
2023/06/10 03:56:52;;;;;;;7.23;6.63;;;;;;;14.86;100.00;102068.09;5002696;28;20461;-44
2023/06/10 03:59:19;;;;;;;6.60;6.17;;;;;;;14.93;100.00;102070.84;5001223;28;20464;-45
2023/06/10 04:01:47;;;;;;;7.80;7.30;;;;;;;14.98;100.00;102078.28;4998906;28;20465;-44
2023/06/10 04:04:17;;;;;;;7.43;6.83;;;;;;;15.04;100.00;102061.41;5001805;28;20438;-43
2023/06/10 04:06:45;;;;;;;6.90;6.40;;;;;;;15.05;100.00;102063.91;4999331;28;20461;-43
2023/06/10 04:09:13;;;;;;;7.77;7.17;;;;;;;15.04;100.00;102058.72;4997664;28;20438;-44
2023/06/10 04:11:41;;;;;;;11.17;7.10;;;;;;;15.18;100.00;102055.09;4999929;28;21062;-43
2023/06/10 04:14:10;;;;;;;7.60;6.90;;;;;;;15.30;100.00;102056.22;4997139;28;20553;-45
2023/06/10 04:16:38;;;;;;;8.10;7.30;;;;;;;15.35;100.00;102061.88;4996368;28;20438;-44
2023/06/10 04:19:06;;;;;;;7.00;6.70;;;;;;;15.34;100.00;102068.25;5006030;28;20444;-42
2023/06/10 04:21:34;;;;;;;7.30;6.90;;;;;;;15.28;100.00;102058.28;5002970;28;20793;-43
2023/06/10 04:24:01;;;;;;;7.33;6.63;;;;;;;15.37;100.00;102067.88;5001780;28;20512;-43
2023/06/10 04:26:29;;;;;;;8.80;6.17;;;;;;;15.58;100.00;102065.16;5009644;28;20842;-44
2023/06/10 04:28:57;;;;;;;6.97;6.43;;;;;;;16.80;100.00;102061.50;5005784;28;20890;-45
2023/06/10 04:31:26;;;;;;;5.53;5.23;;;;;;;17.88;100.00;102049.41;5006897;28;20445;-46
2023/06/10 04:33:54;;;;;;;5.27;4.87;;;;;;;18.90;100.00;102042.00;4997145;28;20473;-44
2023/06/10 04:36:22;;;;;;;5.57;5.10;;;;;;;19.57;100.00;102037.66;5011870;28;20464;-44
2023/06/10 04:38:52;;;;;;;5.53;5.10;;;;;;;20.00;100.00;102043.81;5004198;28;20437;-44
2023/06/10 04:41:19;;;;;;;7.87;5.70;;;;;;;20.87;99.62;102047.81;4992174;28;20811;-46
2023/06/10 04:43:47;;;;;;;5.30;4.20;;;;;;;21.38;86.27;102045.31;4987846;28;20460;-46
2023/06/10 04:46:15;;;;;;;6.17;4.90;;;;;;;21.94;83.16;102041.13;5007228;28;20464;-44
2023/06/10 04:48:46;;;;;;;5.20;4.67;;;;;;;21.84;78.41;102044.41;4997430;28;20447;-44
2023/06/10 04:51:14;;;;;;;5.90;5.07;;;;;;;22.45;77.36;102045.66;5009575;28;20437;-43
2023/06/10 04:53:42;;;;;;;4.30;4.07;;;;;;;22.34;71.51;102050.06;5000581;28;20474;-47
2023/06/10 04:56:10;;;;;;;5.00;4.60;;;;;;;22.76;74.31;102047.84;4995560;28;20939;-45
2023/06/10 04:58:38;;;;;;;5.43;4.97;;;;;;;22.71;69.72;102041.50;5000902;28;20432;-44
2023/06/10 05:01:05;;;;;;;5.17;4.83;;;;;;;22.83;67.56;102045.00;5005392;28;20465;-45
2023/06/10 05:03:33;;;;;;;6.63;4.50;;;;;;;23.37;65.34;102036.06;5009835;28;20463;-45
2023/06/10 05:06:02;;;;;;;6.80;4.50;;;;;;;22.88;61.53;102050.53;4995768;28;20448;-48
2023/06/10 05:08:30;;;;;;;4.93;4.23;;;;;;;23.64;59.77;102037.03;5003627;28;20436;-45
2023/06/10 05:10:58;;;;;;;4.70;4.30;;;;;;;23.81;58.57;102039.69;5000296;28;20520;-45
2023/06/10 05:13:26;;;;;;;4.43;4.03;;;;;;;23.87;62.33;102048.75;4990397;28;20534;-49
2023/06/10 05:15:53;;;;;;;5.43;3.90;;;;;;;24.33;57.72;102034.59;4993426;28;20442;-44
2023/06/10 05:18:22;;;;;;;6.60;3.93;;;;;;;24.36;56.58;102036.00;4998807;28;20431;-45
2023/06/10 05:20:50;;;;;;;5.13;3.27;;;;;;;24.26;55.55;102033.97;5001823;28;20440;-45
2023/06/10 05:23:19;;;;;;;5.20;3.93;;;;;;;24.64;54.57;102036.53;5007793;28;20465;-46
2023/06/10 05:25:47;;;;;;;8.20;3.83;;;;;;;24.50;55.53;102042.69;5010279;28;20433;-45
2023/06/10 05:28:15;;;;;;;4.60;4.27;;;;;;;24.51;53.74;102030.69;5005706;28;20872;-47
2023/06/10 05:30:43;;;;;;;4.63;3.50;;;;;;;23.90;56.59;102038.16;5007918;28;20597;-46
2023/06/10 05:33:11;;;;;;;4.17;3.83;;;;;;;23.82;55.32;102045.97;4998109;28;20471;-49
2023/06/10 05:35:39;;;;;;;4.20;3.90;;;;;;;23.53;56.42;102054.31;5004872;28;20509;-44
2023/06/10 05:38:07;;;;;;;4.20;3.50;;;;;;;23.45;56.77;102053.88;5007082;28;20448;-47
2023/06/10 05:40:36;;;;;;;4.33;3.93;;;;;;;23.70;56.30;102059.69;4996289;28;20437;-50
2023/06/10 05:43:04;;;;;;;5.93;4.00;;;;;;;24.27;54.48;102059.34;4996872;28;20464;-49
2023/06/10 05:45:31;;;;;;;3.63;3.33;;;;;;;24.44;54.91;102044.53;5005129;28;20436;-46
2023/06/10 05:47:59;;;;;;;3.87;3.57;;;;;;;24.47;54.29;102054.09;5006759;28;20459;-47
2023/06/10 05:50:27;;;;;;;8.83;3.83;;;;;;;24.60;53.16;102032.72;5012219;28;20945;-45
2023/06/10 05:52:55;;;;;;;4.80;4.37;;;;;;;24.38;54.37;102014.75;5011588;28;21156;-48
2023/06/10 05:55:23;;;;;;;5.30;3.83;;;;;;;24.80;54.51;102032.06;4998290;28;20476;-44
2023/06/10 05:58:01;;;;;;;4.27;3.90;;;;;;;24.64;54.09;102033.03;5008358;28;20464;-42
2023/06/10 06:00:28;;;;;;;3.73;3.40;;;;;;;24.11;55.49;102028.34;5010402;28;20519;-44
2023/06/10 06:02:57;;;;;;;3.77;3.33;;;;;;;25.16;55.15;102027.72;5010642;28;20472;-44
2023/06/10 06:05:25;;;;;;;6.97;3.63;;;;;;;25.37;51.55;102036.88;5010414;28;20428;-46
2023/06/10 06:07:53;;;;;;;3.90;3.60;;;;;;;25.20;51.49;102042.50;5010377;28;20433;-45
2023/06/10 06:10:20;;;;;;;4.13;3.40;;;;;;;24.89;52.12;102029.69;5010616;28;20468;-47
2023/06/10 06:12:48;;;;;;;4.47;4.17;;;;;;;24.75;53.03;102037.47;5010556;28;20464;-44
2023/06/10 06:15:17;;;;;;;4.60;4.10;;;;;;;25.18;53.80;102039.19;5009551;28;20480;-46
2023/06/10 06:17:45;;;;;;;9.90;3.73;;;;;;;24.96;51.09;102038.50;5009368;28;21082;-44
2023/06/10 06:20:14;;;;;;;5.37;3.73;;;;;;;25.65;51.56;102031.06;5010916;28;20443;-46
2023/06/10 06:22:46;;;;;;;3.47;3.17;;;;;;;25.64;51.98;102029.41;5010994;28;20464;-45
2023/06/10 06:25:15;;;;;;;5.83;3.80;;;;;;;25.05;50.94;102043.22;5010851;28;20532;-44
2023/06/10 06:27:43;;;;;;;5.33;4.33;;;;;;;25.11;51.16;102046.81;5000783;28;20488;-44
2023/06/10 06:30:12;;;;;;;3.90;3.40;;;;;;;24.82;51.72;102023.66;5006898;28;20433;-45
2023/06/10 06:32:41;;;;;;;5.03;3.60;;;;;;;24.59;52.54;102052.88;5010128;28;20488;-49
2023/06/10 06:35:09;;;;;;;4.27;3.83;;;;;;;24.46;52.84;102044.28;5009494;28;20572;-46
2023/06/10 06:37:38;;;;;;;5.87;3.87;;;;;;;24.44;53.14;102047.25;5010132;28;20440;-49
2023/06/10 06:40:06;;;;;;;5.93;3.87;;;;;;;24.67;52.81;102048.88;5010447;28;20447;-47
2023/06/10 06:42:34;;;;;;;4.00;3.57;;;;;;;24.53;53.74;102042.16;5010243;28;20877;-46
2023/06/10 06:45:02;;;;;;;4.17;3.90;;;;;;;24.23;53.59;102042.66;4996481;28;20966;-44
2023/06/10 06:47:30;;;;;;;5.93;4.00;;;;;;;24.45;53.32;102043.47;5007499;28;20853;-49
2023/06/10 06:49:59;;;;;;;4.97;3.53;;;;;;;24.82;53.53;102035.38;5011870;28;20436;-46
2023/06/10 06:52:27;;;;;;;4.47;4.07;;;;;;;25.09;52.88;102044.31;5013943;28;20468;-45
2023/06/10 06:54:55;;;;;;;4.20;3.87;;;;;;;25.23;52.66;102044.72;5005444;28;20992;-47
2023/06/10 06:57:23;;;;;;;4.70;3.90;;;;;;;25.47;51.83;102047.88;5013621;28;20444;-47
2023/06/10 06:59:51;;;;;;;4.37;3.97;;;;;;;25.78;50.77;102050.50;5014339;28;20461;-46
2023/06/10 07:02:19;;;;;;;9.30;4.00;;;;;;;26.29;48.61;102053.47;5001912;28;20605;-43
2023/06/10 07:04:48;;;;;;;7.67;3.90;;;;;;;26.18;49.47;102054.53;5008474;28;20440;-42
2023/06/10 07:07:18;;;;;;;4.57;3.67;;;;;;;26.07;49.26;102058.28;5013519;28;20443;-44
2023/06/10 07:09:45;;;;;;;6.20;4.10;;;;;;;25.07;50.75;102053.84;5013903;28;20458;-46
2023/06/10 07:12:13;;;;;;;4.70;4.30;;;;;;;24.02;54.64;102054.38;5013853;28;20491;-45
2023/06/10 07:14:41;;;;;;;7.33;5.20;;;;;;;24.09;54.29;102049.56;5014050;28;20283;-44
2023/06/10 07:17:08;;;;;;;7.50;4.60;;;;;;;24.13;54.20;102054.28;5013303;28;20436;-47
2023/06/10 07:19:36;;;;;;;7.37;4.60;;;;;;;24.71;53.27;102058.16;5010070;28;20798;-44
2023/06/10 07:22:04;;;;;;;4.67;4.33;;;;;;;24.56;54.39;102052.56;5013356;28;20456;-44
2023/06/10 07:24:34;;;;;;;4.97;4.57;;;;;;;24.77;54.35;102059.84;5013599;28;20507;-44
2023/06/10 07:27:01;;;;;;;7.07;4.37;;;;;;;24.51;55.12;102066.16;5013536;28;20491;-44
2023/06/10 07:29:29;;;;;;;3.80;3.50;;;;;;;23.92;56.64;102060.56;5013087;28;20838;-44
2023/06/10 07:31:57;;;;;;;4.87;4.07;;;;;;;23.39;58.75;102084.81;5012658;28;20483;-47
2023/06/10 07:34:25;;;;;;;5.50;4.00;;;;;;;22.64;62.42;102068.81;5013603;28;20476;-46
2023/06/10 07:36:52;;;;;;;3.80;3.50;;;;;;;21.93;69.67;102093.78;5012617;28;20486;-44
2023/06/10 07:39:20;;;;;;;4.43;4.10;;;;;;;22.09;70.14;102076.75;5013575;28;20455;-46
2023/06/10 07:41:49;;;;;;;6.13;4.30;;;;;;;22.44;69.47;102080.16;5013311;28;20514;-44
2023/06/10 07:44:17;;;;;;;8.03;4.90;;;;;;;23.13;66.41;102078.16;5013063;28;20490;-46
2023/06/10 07:46:45;;;;;;;4.30;3.90;;;;;;;22.99;64.08;102085.00;5012797;28;20853;-45
2023/06/10 07:49:13;;;;;;;4.90;4.27;;;;;;;23.35;64.91;102083.66;5013165;28;20992;-46
2023/06/10 07:51:41;;;;;;;5.73;4.47;;;;;;;23.75;63.38;102075.28;5012445;28;20515;-46
2023/06/10 07:54:08;;;;;;;4.40;3.83;;;;;;;23.47;61.11;102095.31;5005697;28;20491;-49
2023/06/10 07:56:36;;;;;;;6.23;4.40;;;;;;;23.44;61.02;102088.47;5012398;28;20603;-44
2023/06/10 07:59:05;;;;;;;4.93;4.50;;;;;;;22.93;63.57;102085.97;5013375;28;20437;-45
2023/06/10 08:01:33;;;;;;;5.23;4.03;;;;;;;23.15;64.92;102086.88;5012530;28;20484;-44
2023/06/10 08:04:01;;;;;;;4.93;4.50;;;;;;;23.61;62.63;102080.28;5012272;28;20897;-44
2023/06/10 08:06:28;;;;;;;8.17;4.50;;;;;;;23.43;62.54;102083.25;5012743;28;20434;-46
2023/06/10 08:08:56;;;;;;;4.27;3.90;;;;;;;23.21;62.93;102083.16;5012750;28;20495;-45
2023/06/10 08:11:24;;;;;;;4.47;4.07;;;;;;;22.66;64.26;102088.50;5012295;28;20520;-44
2023/06/10 08:13:52;;;;;;;5.13;4.50;;;;;;;22.14;66.71;102095.84;5011970;28;20488;-47
2023/06/10 08:16:21;;;;;;;5.47;4.93;;;;;;;21.35;72.22;102097.34;5012276;28;20514;-45
2023/06/10 08:18:50;;;;;;;5.80;4.90;;;;;;;21.01;78.32;102084.50;5012192;28;20441;-47
2023/06/10 08:21:22;;;;;;;5.57;5.03;;;;;;;21.01;79.20;102079.09;5012712;28;20439;-47
2023/06/10 08:23:53;;;;;;;6.60;5.13;;;;;;;21.18;80.61;102082.78;5010773;28;20469;-43
2023/06/10 08:26:21;;;;;;;6.27;4.57;;;;;;;20.63;83.73;102082.19;5011322;28;20431;-48
2023/06/10 08:28:49;;;;;;;5.47;4.50;;;;;;;20.70;83.80;102079.34;5011693;28;20507;-44
2023/06/10 08:31:16;;;;;;;8.17;5.20;;;;;;;20.87;86.77;102075.78;5011187;28;20440;-46
2023/06/10 08:33:46;;;;;;;5.47;4.80;;;;;;;20.90;86.85;102083.44;5011051;28;20468;-46
2023/06/10 08:36:13;;;;;;;4.80;4.50;;;;;;;20.66;87.97;102089.84;5011634;28;21055;-44
2023/06/10 08:38:41;;;;;;;9.00;4.93;;;;;;;20.63;88.59;102074.06;5012116;28;21004;-46
2023/06/10 08:41:13;;;;;;;4.93;4.40;;;;;;;20.72;88.49;102080.78;5012304;28;20432;-43
2023/06/10 08:43:46;;;;;;;6.37;5.30;;;;;;;21.29;85.05;102078.44;5011459;28;20526;-43
2023/06/10 08:46:15;;;;;;;5.07;4.63;;;;;;;21.15;89.65;102082.44;5010975;28;20454;-45
2023/06/10 08:48:44;;;;;;;5.27;4.77;;;;;;;21.17;87.40;102072.19;5011444;28;20467;-44
2023/06/10 08:51:16;;;;;;;5.33;4.93;;;;;;;21.16;86.21;102073.25;5012081;28;20465;-44
2023/06/10 08:53:51;;;;;;;7.97;5.50;;;;;;;21.42;83.73;102086.34;5001070;28;20934;-43
2023/06/10 08:56:20;;;;;;;5.93;4.90;;;;;;;21.03;84.85;102079.66;4992699;28;20477;-43
2023/06/10 08:58:49;;;;;;;6.30;5.50;;;;;;;20.99;86.12;102075.78;4993265;28;20500;-43
2023/06/10 09:01:18;;;;;;;4.80;4.50;;;;;;;20.70;86.12;102084.78;4993107;28;20436;-43
2023/06/10 09:03:46;;;;;;;5.20;4.80;;;;;;;20.47;91.05;102069.25;4992811;28;20915;-43
2023/06/10 09:06:15;;;;;;;5.77;5.27;;;;;;;21.02;90.31;102077.22;4993076;28;20452;-44
2023/06/10 09:08:43;;;;;;;6.80;5.50;;;;;;;20.78;89.23;102104.28;4992730;28;20438;-45
2023/06/10 09:11:11;;;;;;;5.60;5.10;;;;;;;20.83;92.03;102077.28;4993319;28;20437;-43
2023/06/10 09:13:39;;;;;;;6.20;5.40;;;;;;;20.94;90.24;102079.19;4992366;28;20457;-43
2023/06/10 09:16:07;;;;;;;7.87;6.00;;;;;;;20.85;89.04;102077.03;4992886;28;20477;-43
2023/06/10 09:18:35;;;;;;;6.20;4.93;;;;;;;20.96;88.53;102062.69;4993050;28;20851;-43
2023/06/10 09:21:03;;;;;;;7.83;5.03;;;;;;;21.11;91.69;102102.97;4992558;28;20935;-44
2023/06/10 09:23:33;;;;;;;5.73;4.70;;;;;;;20.98;90.22;102069.53;4991799;28;20470;-43
2023/06/10 09:26:01;;;;;;;9.17;4.80;;;;;;;21.11;88.68;102071.25;4992640;28;21021;-43
2023/06/10 09:28:28;;;;;;;7.50;5.13;;;;;;;21.27;87.13;102069.69;4992719;28;20990;-45
2023/06/10 09:31:04;;;;;;;5.20;4.60;;;;;;;21.21;88.26;102076.06;4992851;28;20476;-44
2023/06/10 09:33:32;;;;;;;6.80;5.20;;;;;;;21.17;91.40;102073.03;4992106;28;20539;-44
2023/06/10 09:36:02;;;;;;;8.77;5.30;;;;;;;21.13;92.95;102082.69;4992840;28;20468;-43
2023/06/10 09:38:33;;;;;;;7.03;5.33;;;;;;;20.77;92.59;102075.50;4992576;28;20785;-44
2023/06/10 09:41:02;;;;;;;7.63;5.50;;;;;;;21.14;95.87;102059.09;4992576;28;20491;-44
2023/06/10 09:43:44;;;;;;;9.20;5.50;;;;;;;20.98;93.54;102061.41;4991470;28;20473;-46
2023/06/10 09:46:16;;;;;;;11.00;5.00;;;;;;;21.21;94.99;102059.78;4992432;28;20479;-46
2023/06/10 09:48:45;;;;;;;8.67;5.20;;;;;;;21.21;90.54;102060.63;4992197;28;20516;-47
2023/06/10 09:51:14;;;;;;;11.83;5.43;;;;;;;21.25;85.79;102048.25;4992403;28;20433;-46
2023/06/10 09:53:43;;;;;;;7.90;5.20;;;;;;;21.23;87.19;102061.22;4991939;28;20461;-45
2023/06/10 09:56:11;;;;;;;6.87;5.00;;;;;;;21.25;88.30;102045.53;4992219;28;20843;-47
2023/06/10 09:58:43;;;;;;;5.43;4.93;;;;;;;21.18;88.53;102058.38;4992113;28;20441;-46
2023/06/10 10:01:12;;;;;;;7.63;4.90;;;;;;;21.58;85.02;102054.94;4992122;28;20457;-44
2023/06/10 10:03:47;;;;;;;11.20;6.03;;;;;;;21.68;83.09;102060.63;4991505;28;20464;-46
2023/06/10 10:06:16;;;;;;;8.77;5.77;;;;;;;21.79;81.02;102060.59;4992025;28;20509;-47
2023/06/10 10:08:48;;;;;;;5.60;5.20;;;;;;;21.55;82.24;102066.28;4992196;28;20433;-44
2023/06/10 10:11:18;;;;;;;8.40;5.60;;;;;;;21.61;81.58;102043.63;4991579;28;20927;-44
2023/06/10 10:13:48;;;;;;;9.70;5.40;;;;;;;21.70;83.09;102055.78;4991527;28;20460;-43
2023/06/10 10:16:18;;;;;;;7.70;6.57;;;;;;;21.67;83.81;102064.38;4992341;28;20480;-43
2023/06/10 10:18:52;;;;;;;5.73;5.10;;;;;;;21.49;84.28;102043.63;4992005;28;20836;-44
2023/06/10 10:21:24;;;;;;;7.10;4.70;;;;;;;21.48;87.13;102075.38;4990822;28;20430;-45
2023/06/10 10:24:02;;;;;;;6.10;5.30;;;;;;;21.47;87.57;102065.56;4991421;28;20523;-46
2023/06/10 10:26:32;;;;;;;7.83;5.97;;;;;;;21.45;88.50;102069.59;4991967;28;20438;-43
2023/06/10 10:29:08;;;;;;;11.57;5.73;;;;;;;21.42;91.29;102059.22;5003378;28;20907;-45
2023/06/10 10:31:37;;;;;;;7.50;5.10;;;;;;;21.47;89.62;102056.63;4991915;28;20515;-46
2023/06/10 10:34:08;;;;;;;7.47;5.47;;;;;;;21.70;87.56;102064.75;4989807;28;20567;-46
2023/06/10 10:36:37;;;;;;;8.80;5.50;;;;;;;21.85;85.05;102042.53;4991783;28;20469;-43
2023/06/10 10:39:07;;;;;;;8.23;6.43;;;;;;;21.99;89.56;102077.34;4991743;28;20439;-46
2023/06/10 10:41:37;;;;;;;9.27;5.17;;;;;;;21.93;88.79;102047.59;4991688;28;20455;-43
2023/06/10 10:44:09;;;;;;;10.13;5.30;;;;;;;21.93;86.33;102043.00;4991391;28;20457;-46
2023/06/10 10:46:44;;;;;;;11.80;5.93;;;;;;;22.14;86.20;102037.97;5003570;23;20496;-47
2023/06/10 10:49:14;;;;;;;6.90;5.20;;;;;;;22.16;81.29;102035.84;5011772;28;20489;-43
2023/06/10 10:51:56;;;;;;;5.80;5.30;;;;;;;22.32;82.79;102045.94;5012010;28;20409;-46
2023/06/10 10:54:31;;;;;;;10.43;6.80;;;;;;;22.22;78.58;102051.19;5011870;28;20968;-43
2023/06/10 10:57:16;;;;;;;6.17;5.30;;;;;;;22.26;81.21;102033.31;5011482;28;20486;-47
2023/06/10 10:59:45;;;;;;;6.47;5.40;;;;;;;22.57;75.70;102044.53;5011806;28;20855;-44
2023/06/10 11:02:17;;;;;;;6.87;5.30;;;;;;;22.41;74.78;102039.88;5010350;28;20468;-48
2023/06/10 11:04:47;;;;;;;7.13;5.53;;;;;;;22.54;72.88;102038.75;5011570;28;20513;-45
2023/06/10 11:07:16;;;;;;;8.40;5.23;;;;;;;22.43;74.11;102056.75;5011522;28;20456;-44
2023/06/10 11:10:01;;;;;;;5.87;5.37;;;;;;;22.18;74.09;102053.56;5011924;28;20482;-43
2023/06/10 11:12:51;;;;;;;7.00;4.97;;;;;;;22.18;77.66;102066.31;5011223;28;20825;-46
2023/06/10 11:15:20;;;;;;;7.47;5.63;;;;;;;22.19;77.48;102051.69;5002744;28;20487;-51
2023/06/10 11:18:13;;;;;;;5.83;5.30;;;;;;;22.25;76.62;102046.06;5011369;28;20926;-45
2023/06/10 11:20:59;;;;;;;5.90;5.07;;;;;;;22.31;75.83;102061.41;5011691;28;20436;-49
2023/06/10 11:23:40;;;;;;;6.73;5.37;;;;;;;21.93;76.67;102053.03;5009811;28;20479;-45
2023/06/10 11:26:14;;;;;;;6.83;6.23;;;;;;;22.43;75.83;102064.09;5011301;28;20494;-47
2023/06/10 11:28:43;;;;;;;6.20;5.57;;;;;;;22.28;78.20;102044.78;5022743;28;20489;-47